Mackinaw City, MI (49701)

8:23 PM EDT on July 29, 2016 (GMT -0400)
Mackinac Bridge | | Change Station

Elev 587 ft 45.79 °N, 84.73 °W | Updated 11 minutes ago

Clear
Clear
81.7 °F
Feels Like 81 °F
N
0.9
Wind Variable Wind from North

Today
High -- | Low -- °F
--% Chance of Precip.
Yesterday
High -- | Low -- °F
Precip. -- in
Pressure 30.06 in
Visibility 7.0 miles
Clouds Clear
Heat Index 81 °F
Dew Point 56 °F
Humidity 41%
Rainfall Not available.
Snow Depth Not available.
6:19 AM 9:10 PM
Waning Crescent, 18% visible
METAR KMCD 300015Z AUTO 00000KT 7SM CLR 22/12 A3006 RMK AO2 T02200117
Pressure 30.06 in
Visibility 7.0 miles
Clouds Clear
Heat Index 81 °F
Dew Point 56 °F
Humidity 41%
Rainfall Not available.
Snow Depth Not available.
6:19 AM 9:10 PM
Waning Crescent, 18% visible
METAR KMCD 300015Z AUTO 00000KT 7SM CLR 22/12 A3006 RMK AO2 T02200117

10-Day Weather Forecast

Almanac

Astronomy

Jul. 29, 2016 Rise Set
Actual Time
Civil Twilight
Nautical Twilight
Astronomical Twilight
Moon
Length of Visible Light
Length of Day
Tomorrow will be .
, % of the Moon is Illuminated

Today's Extremes

State Highs State Lows

Community

WunderPhotos

Upload Photos

1,928,449 photos uploaded!

WunderBlog® & News

Nearby

Air Quality

  Air Quality AQ Index Pollutant
Not available.

Snow Depth

Station Depth Elevation

Earthquake Activity

City Distance Mag. Time & Date
Minimum magnitude displayed is 2.5.

Coastal Water Temperatures

Place Temperature

Stations

Nearby Weather Stations

Station Location Temp. Windchill Dew Point Humidity Wind Precip. Elev Updated Type
                   

Watches & Warnings

There are currently no watches in effect.